2 de julio de 2022

Hora Código Tiempo Temp. Visibilidad Cielo nuboso Viento METAR/SPECI
3:00 a. m.
V
68 °F 15 mi 25.000 ft 270° 270° 10 - 19 kt METAR CYOW 020700Z 27010G19KT 15SM FEW080 BKN250 20/14 A2977 RMK AC1CI4 SLP081 DENSITY ALT 1300FT
2:00 a. m.
V
68 °F 15 mi 25.000 ft 250° 250° 6 kt METAR CYOW 020600Z 25006KT 15SM FEW080 BKN250 20/16 A2976 RMK AC1CI5 SLP078 DENSITY ALT 1200FT
1:00 a. m.
V
72 °F 15 mi 25.000 ft 260° 260° 10 kt METAR CYOW 020500Z 26010KT 15SM FEW040 SCT070 OVC250 22/17 A2976 RMK CU1AC2CS5 SLP079 DENSITY ALT 1500FT
12:00 a. m.
V
70 °F 15 mi 4.500 ft 230° 230° 5 kt METAR CYOW 020400Z 23005KT 15SM BKN045 BKN250 21/18 A2975 RMK SC5CI2 SLP076 DENSITY ALT 1400FT

1 de julio de 2022

Hora Código Tiempo Temp. Visibilidad Cielo nuboso Viento METAR/SPECI
11:00 p. m.
V
72 °F 15 mi 25.000 ft 260° 260° 7 kt METAR CYOW 020300Z 26007KT 15SM FEW010 BKN250 22/17 A2975 RMK SF1CI6 SLP076 DENSITY ALT 1500FT
10:00 p. m.
V
73 °F 15 mi 25.000 ft 210° 210° 6 kt METAR CYOW 020200Z 21006KT 15SM FEW030 SCT210 BKN250 23/18 A2975 RMK SC2CI2CI3 SLP077 DENSITY ALT 1600FT
9:00 p. m.
V
75 °F 15 mi 25.000 ft 170° 170° 4 kt METAR CYOW 020100Z 17004KT 15SM FEW030 FEW080 SCT210 BKN250 24/17 A2975 RMK CU1AC2CI2CI3 CU TR SLP076 DENSITY ALT 1700FT
8:00 p. m.
V
79 °F 15 mi 25.000 ft 230° 230° 7 kt METAR CYOW 020000Z 23007KT 15SM FEW040TCU FEW080 BKN250 26/17 A2976 RMK TCU1AC1CI5 SLP078 DENSITY ALT 2000FT
7:00 p. m.
V
81 °F 15 mi 26.000 ft 230° 230° 11 kt METAR CYOW 012300Z 23011KT 15SM FEW045 SCT080 BKN260 27/17 A2976 RMK SC1AC3CI3 SLP079 DENSITY ALT 2100FT
6:00 p. m.
V
82 °F 15 mi 8.500 ft 230° 230° 12 - 21 kt METAR CYOW 012200Z 23012G21KT 15SM FEW040 BKN085 BKN260 28/17 A2977 RMK CU1AC5CI1 CU TR SLP082 DENSITY ALT 2100FT
5:00 p. m.
V
82 °F 15 mi - 220° 220° 16 - 26 kt METAR CYOW 012100Z 22016G26KT 15SM FEW040 FEW080 FEW160 SCT280 28/18 A2978 RMK CU1AC1AC1CI2 CU TR SLP085 DENSITY ALT 2100FT
4:00 p. m.
V
81 °F 15 mi 26.000 ft 210° 210° 11 kt METAR CYOW 012000Z 21011KT 180V240 15SM FEW030 FEW080 FEW100 SCT160 BKN260 27/19 A2981 RMK CU1AC1AC1AC2CI2 CU TR CB TOPS DIST N PRESFR SLP095 DENSITY ALT 2000FT
3:00 p. m.
V
77 °F 15 mi 18.000 ft 210° 210° 10 kt METAR CYOW 011900Z 21010KT 15SM SCT080 SCT100 BKN180 BKN260 25/18 A2983 RMK AC3AC1AC2CI1 CB TOPS DIST N SLP103 DENSITY ALT 1800FT
2:00 p. m.
V
75 °F 15 mi 18.000 ft 200° 200° 8 kt METAR CYOW 011800Z 20008KT 15SM FEW030 FEW100 BKN180 BKN220 BKN260 24/18 A2986 RMK CU1AC1AC5CI1CI1 CU TR AC TR SLP111 DENSITY ALT 1700FT
1:00 p. m.
V
75 °F 15 mi 17.000 ft 180° 180° 8 kt METAR CYOW 011700Z 18008KT 15SM FEW030 BKN170 BKN260 24/17 A2986 RMK CU1AC5CI2 CU TR SLP112 DENSITY ALT 1700FT
12:00 p. m.
V
75 °F 15 mi 21.000 ft 160° 160° 9 - 15 kt METAR CYOW 011600Z 16009G15KT 15SM FEW100 SCT170 BKN210 OVC260 24/17 A2986 RMK AC1AC3CI1CI3 SLP111 DENSITY ALT 1600FT
11:00 a. m.
V
73 °F 15 mi 16.000 ft 130° 130° 8 kt METAR CYOW 011500Z 13008KT 060V140 15SM SCT100 BKN160 OVC210 23/16 A2986 RMK AC3AC4CI1 ACC ASOCTD SLP114 DENSITY ALT 1500FT
10:00 a. m.
V
72 °F 15 mi 16.000 ft 340° 340° 10 kt METAR CYOW 011400Z 34010KT 15SM FEW085 BKN160 22/16 A2991 RMK ACC2AC5 SLP130 DENSITY ALT 1400FT
9:00 a. m.
V
72 °F 15 mi 17.000 ft 240° 240° 8 kt METAR CYOW 011300Z 24008KT 15SM FEW085 SCT140 BKN170 BKN260 22/16 A2989 RMK ACC1AC3AC2CI1 SLP125 DENSITY ALT 1300FT
8:00 a. m.
V
72 °F 15 mi 14.000 ft 250° 250° 10 kt METAR CYOW 011200Z 25010KT 15SM FEW085 BKN140 BKN170 BKN200 22/17 A2988 RMK ACC1AC4AC1CI1 SLP121 DENSITY ALT 1400FT
7:00 a. m.
V
72 °F 15 mi 14.000 ft 190° 190° 10 - 16 kt METAR CYOW 011100Z 19010G16KT 15SM FEW100 BKN140 BKN260 22/16 A2985 RMK ACC1AC6CI1 ACC TR SLP109 DENSITY ALT 1400FT
6:00 a. m.
V
70 °F 15 mi 22.000 ft 190° 190° 10 kt METAR CYOW 011000Z 19010KT 15SM SCT150 BKN220 BKN240 BKN270 21/16 A2986 RMK AC4CI1CC1CI2 CC TR SLP113 DENSITY ALT 1200FT
5:00 a. m.
V
70 °F 15 mi 18.000 ft 190° 190° 8 kt METAR CYOW 010900Z 19008KT 15SM SCT160 BKN180 BKN220 21/16 A2987 RMK AC4AC1CI2 SLP115 DENSITY ALT 1200FT
4:00 a. m.
V
68 °F 15 mi 18.000 ft 190° 190° 6 kt METAR CYOW 010800Z 19006KT 15SM SCT150 BKN180 20/16 A2988 RMK AC4AC3 SLP121 DENSITY ALT 1100FT
3:00 a. m.
V
66 °F 15 mi 14.000 ft 190° 190° 4 kt METAR CYOW 010700Z 19004KT 15SM BKN140 BKN180 OVC250 19/15 A2992 RMK AC5AC1CI2 SLP133 DENSITY ALT 1000FT
2:00 a. m.
V
68 °F 15 mi 18.000 ft 190° 190° 7 kt METAR CYOW 010600Z 19007KT 15SM FEW090 BKN180 BKN230 20/14 A2994 RMK AC1AC4CI2 SLP139 DENSITY ALT 1000FT
1:00 a. m.
V
66 °F 15 mi 7.500 ft 180° 180° 5 kt METAR CYOW 010500Z 18005KT 15SM BKN075 BKN110 BKN180 19/13 A2995 RMK AC5AC1AC1 SLP144 DENSITY ALT 1000FT
12:00 a. m.
V
66 °F 15 mi 19.000 ft 180° 180° 4 kt METAR CYOW 010400Z 18004KT 15SM SCT110 BKN190 BKN250 19/12 A2995 RMK AC3AC3CI1 SLP143 DENSITY ALT 900FT

30 de junio de 2022

Hora Código Tiempo Temp. Visibilidad Cielo nuboso Viento METAR/SPECI
11:00 p. m.
V
63 °F 15 mi 24.000 ft 140° 140° 5 kt METAR CYOW 010300Z 14005KT 15SM FEW120 SCT180 BKN240 17/11 A2996 RMK AC1AC2CI4 SLP147 DENSITY ALT 700FT
10:00 p. m.
V
66 °F 15 mi 25.000 ft 170° 170° 4 kt METAR CYOW 010200Z 17004KT 15SM FEW150 SCT210 BKN250 19/13 A2999 RMK AC1CI2CI3 SLP157 DENSITY ALT 900FT
9:00 p. m.
V
68 °F 15 mi 21.000 ft 160° 160° 6 kt METAR CYOW 010100Z 16006KT 15SM FEW070 SCT150 BKN210 BKN250 20/13 A2997 RMK AC2AC2CI2CI1 CI TR SLP153 DENSITY ALT 1000FT
8:19 p. m.
V
70 °F 15 mi 15.000 ft 160° 160° 8 kt METAR CYOW 010019Z 16008KT 15SM FEW050 SCT070 BKN150 BKN250 21/13 A2999 RMK SC1AC3AC3CI1 CI TR SLP158 DENSITY ALT 1100FT
8:00 p. m.
V
70 °F 15 mi 15.000 ft 150° 150° 10 kt METAR CYOW 010000Z 15010KT 15SM -RA FEW050 SCT070 BKN150 BKN250 21/13 A2999 RMK SC2AC1AC3CI1 PRESFR SLP159 DENSITY ALT 1100FT
7:00 p. m.
V
72 °F 15 mi 10.000 ft 160° 160° 6 kt METAR CYOW 302300Z 16006KT 15SM FEW035 FEW050 BKN100 BKN250 22/14 A3003 RMK CU1SC2AC3CI2 CU TR SLP172 DENSITY ALT 1200FT
6:00 p. m.
V
75 °F 15 mi 25.000 ft 150° 150° 10 kt METAR CYOW 302200Z 15010KT 15SM FEW040 SCT100 SCT220 BKN250 24/15 A3005 RMK CU1AC3CI1CI1 CU TR SLP177 DENSITY ALT 1400FT
5:00 p. m.
V
75 °F 15 mi 16.000 ft 180° 180° 7 kt METAR CYOW 302100Z 18007KT 160V220 15SM FEW040 SCT100 BKN160 BKN220 24/12 A3006 RMK CU2AC2AC1CI2 SLP182 DENSITY ALT 1400FT
4:00 p. m.
V
75 °F 15 mi 18.000 ft 190° 190° 7 kt METAR CYOW 302000Z 19007KT 160V250 15SM FEW040 SCT100 BKN180 BKN220 24/12 A3008 RMK CU2AC2AC1CI2 SLP189 DENSITY ALT 1400FT
3:00 p. m.
V
73 °F 15 mi 11.000 ft 190° 190° 10 kt METAR CYOW 301900Z 19010KT 15SM FEW050 BKN110 BKN220 23/13 A3009 RMK CU2AC4CI1 SLP193 DENSITY ALT 1200FT
2:00 p. m.
V
70 °F 15 mi 13.000 ft 130° 130° 10 kt METAR CYOW 301800Z 13010KT 15SM FEW045 BKN130 BKN220 21/13 A3008 RMK CU2AC4CI1 PRESFR SLP190 DENSITY ALT 1100FT
1:00 p. m.
V
72 °F 15 mi 18.000 ft 190° 190° 5 kt METAR CYOW 301700Z 19005KT 120V220 15SM FEW040 BKN180 BKN220 22/13 A3014 RMK CU2AC3CI1 SLP210 DENSITY ALT 1100FT
12:00 p. m.
V
70 °F 15 mi 18.000 ft 190° 190° 8 kt METAR CYOW 301600Z 19008KT 130V210 15SM FEW030 FEW110 BKN180 BKN220 21/13 A3017 RMK CU1AC1AC3CI1 SLP220 DENSITY ALT 1000FT
11:00 a. m.
V
68 °F 15 mi 18.000 ft Var Var 4 kt METAR CYOW 301500Z VRB04KT 15SM FEW020 FEW110 BKN180 BKN250 20/14 A3020 RMK CU1AC1AC5CI1 CU TR AC TR SLP231 DENSITY ALT 700FT
10:00 a. m.
V
61 °F 15 mi 11.000 ft Var 000° 0 kt METAR CYOW 301400Z 00000KT 15SM FEW004 FEW020 BKN110 16/16 A3023 RMK SF1CU1AC6 CU TR SLP241
9:11 a. m.
L
59 °F 6 mi 300 ft Var Var 2 kt METAR CYOW 301311Z VRB02KT 6SM R32/5000VP6000FT/U BR OVC003 15/15 A3023 RMK ST8 SLP239
9:00 a. m.
L
59 °F ½ mi 400 ft Var Var 2 kt METAR CYOW 301300Z VRB02KT 1/2SM R07/2800VP6000FT/U R32/2600V4000FT/N FG VV004 15/15 A3023 RMK FG8 SLP241
8:00 a. m.
L
57 °F ⅛ mi 300 ft Var 000° 0 kt METAR CYOW 301200Z 00000KT 1/8SM R07/1200V1400FT/N R32/1100V1400FT/N FG VV003 14/14 A3023 RMK FG8 SLP239
7:00 a. m.
L
55 °F ⅛ mi 300 ft 300° 300° 3 kt METAR CYOW 301100Z 30003KT 260V320 1/8SM R07/1100V1800FT/N R32/1200V1400FT/N FG VV003 13/13 A3021 RMK FG8 SLP235
6:00 a. m.
L
52 °F ⅛ mi - Var 000° 0 kt METAR CYOW 301000Z 00000KT 1/8SM R07/0900V1100FT/N R32/0700V0800FT/N FG SKC 11/11 A3021 RMK FG6 SLP234
5:00 a. m.
L
52 °F ⅛ mi - 180° 180° 3 kt METAR CYOW 300900Z 18003KT 1/8SM R07/1200V1600FT/N R32/1200V2000FT/U FG FEW050 SCT250 11/11 A3020 RMK FG3SC1CI1 SC TR SLP230
Datos más antiguos

Descarga nuestra aplicación

Acceso fácil a todo el tiempo de la aviación en tu teléfono móvil y tableta.
Con muchas funciones no disponibles en el sitio web, como la compatibilidad sin conexión y una lista personal de aeropuertos.

Nosotros y terceros seguimos tu comportamiento en Internet en nuestro sitio web con cookies. Si continúas, asumimos que estás de acuerdo con nuestra política de cookies. Más información